createdAt,value
2024-03-12T00:01:30.768Z,39.87
2024-03-12T00:06:33.338Z,38.40
2024-03-12T00:11:36.328Z,39.73
2024-03-12T00:16:41.978Z,39.90
2024-03-12T00:21:45.014Z,39.87
2024-03-12T00:26:49.000Z,34.70
2024-03-12T00:31:52.576Z,38.23
2024-03-12T00:36:55.068Z,37.50
2024-03-12T00:41:57.744Z,33.73
2024-03-12T00:47:02.675Z,32.00
2024-03-12T00:52:05.452Z,34.10
2024-03-12T00:57:07.961Z,37.90
2024-03-12T01:02:13.818Z,35.10
2024-03-12T01:07:17.646Z,33.30
2024-03-12T01:12:20.066Z,27.17
2024-03-12T01:17:23.786Z,35.27
2024-03-12T01:22:26.282Z,35.23
2024-03-12T01:27:28.734Z,23.53
2024-03-12T01:32:32.060Z,36.73
2024-03-12T01:37:35.372Z,38.27
2024-03-12T01:42:37.861Z,38.47
2024-03-12T01:47:40.332Z,39.03
2024-03-12T01:52:44.795Z,37.90
2024-03-12T01:57:48.471Z,36.20
2024-03-12T02:02:53.886Z,39.40
2024-03-12T02:07:56.505Z,36.67
2024-03-12T02:12:58.984Z,34.37
2024-03-12T02:18:01.662Z,31.73
2024-03-12T02:23:04.168Z,37.70
2024-03-12T02:28:07.503Z,36.27
2024-03-12T02:33:10.093Z,35.63
2024-03-12T02:38:14.577Z,35.67
2024-03-12T02:43:17.499Z,35.20
2024-03-12T02:48:19.974Z,33.83
2024-03-12T02:53:22.681Z,32.07
2024-03-12T02:58:27.333Z,25.63
2024-03-12T03:03:29.998Z,30.60
2024-03-12T03:08:32.682Z,34.17
2024-03-12T03:13:35.314Z,34.60
2024-03-12T03:18:38.355Z,30.23
2024-03-12T03:23:42.894Z,35.00
2024-03-12T03:28:45.909Z,32.83
2024-03-12T03:33:48.784Z,32.20
2024-03-12T03:38:51.737Z,34.30
2024-03-12T03:43:54.219Z,33.60
2024-03-12T03:48:59.026Z,30.93
2024-03-12T03:54:02.525Z,32.60
2024-03-12T03:59:06.983Z,34.27
2024-03-12T04:04:12.745Z,34.23
2024-03-12T04:09:16.430Z,31.03
2024-03-12T04:14:19.611Z,37.73
2024-03-12T04:19:22.225Z,34.93
2024-03-12T04:24:26.166Z,37.47
2024-03-12T04:29:29.383Z,35.93
2024-03-12T04:34:33.601Z,31.13
2024-03-12T04:39:37.280Z,36.23
2024-03-12T04:44:39.816Z,36.23
2024-03-12T04:49:42.296Z,35.57
2024-03-12T04:54:44.717Z,41.03
2024-03-12T04:59:49.054Z,39.97
2024-03-12T05:04:51.465Z,40.17
2024-03-12T05:09:54.140Z,40.23
2024-03-12T05:14:56.685Z,37.03
2024-03-12T05:19:59.223Z,27.27
2024-03-12T05:25:03.201Z,38.87
2024-03-12T05:30:12.103Z,35.93
2024-03-12T05:35:23.585Z,31.30
2024-03-12T05:40:31.186Z,36.40
2024-03-12T05:45:52.329Z,38.03
2024-03-12T05:50:56.872Z,36.23
2024-03-12T05:55:59.457Z,34.37
2024-03-12T06:01:03.863Z,35.67
2024-03-12T06:06:08.737Z,33.23
2024-03-12T06:11:11.272Z,34.63
2024-03-12T06:16:13.809Z,22.00
2024-03-12T06:21:17.514Z,39.07
2024-03-12T06:26:20.514Z,36.07
2024-03-12T06:31:23.840Z,37.37
2024-03-12T06:36:26.425Z,37.40
2024-03-12T06:41:28.899Z,38.33
2024-03-12T06:46:31.380Z,35.90
2024-03-12T06:51:34.010Z,37.40
2024-03-12T06:56:43.730Z,37.10
2024-03-12T07:01:46.811Z,34.13
2024-03-12T07:06:49.317Z,39.17
2024-03-12T07:11:51.845Z,36.80
2024-03-12T07:16:56.179Z,36.03
2024-03-12T07:21:58.712Z,31.93
2024-03-12T07:44:01.054Z,33.40
2024-03-12T07:49:05.029Z,35.30
2024-03-12T07:54:07.893Z,30.10
2024-03-12T07:59:10.446Z,26.80
2024-03-12T08:04:14.538Z,29.73
2024-03-12T08:09:17.046Z,29.17
2024-03-12T08:14:19.857Z,32.37
2024-03-12T08:19:26.626Z,31.97
2024-03-12T08:24:30.617Z,32.43
2024-03-12T08:29:33.216Z,30.27
2024-03-12T08:34:38.063Z,27.67
2024-03-12T08:39:40.932Z,32.37
2024-03-12T08:44:44.535Z,33.53
2024-03-12T08:49:47.199Z,31.83
2024-03-12T08:54:49.676Z,31.00
2024-03-12T08:59:52.239Z,32.00
2024-03-12T09:04:55.188Z,31.20
2024-03-12T09:09:59.881Z,32.50
2024-03-12T09:15:03.573Z,35.63
2024-03-12T09:20:12.594Z,31.23
2024-03-12T09:25:18.265Z,32.60
2024-03-12T09:30:21.895Z,32.70
2024-03-12T09:35:26.063Z,27.07
2024-03-12T09:40:29.575Z,27.87
2024-03-12T09:45:33.018Z,34.43
2024-03-12T09:50:36.882Z,34.23
2024-03-12T09:55:41.335Z,32.10
2024-03-12T10:00:45.270Z,30.53
2024-03-12T10:05:47.968Z,32.93
2024-03-12T10:10:53.515Z,36.00
2024-03-12T10:16:03.994Z,27.87
2024-03-12T10:21:08.310Z,26.63
2024-03-12T10:26:18.371Z,29.47
2024-03-12T10:31:21.537Z,28.17
2024-03-12T10:36:32.523Z,33.33
2024-03-12T10:41:35.427Z,32.83
2024-03-12T10:46:42.637Z,38.67
2024-03-12T10:51:45.839Z,38.63
2024-03-12T10:56:48.944Z,26.13
2024-03-12T11:01:51.520Z,43.03
2024-03-12T11:06:55.352Z,23.73
2024-03-12T11:11:58.083Z,36.87
2024-03-12T11:17:01.714Z,33.40
2024-03-12T11:22:13.346Z,40.10
2024-03-12T11:27:26.250Z,37.93
2024-03-12T11:32:30.767Z,38.70
2024-03-12T11:37:34.268Z,34.30
2024-03-12T11:42:36.721Z,28.53
2024-03-12T11:47:41.462Z,40.33
2024-03-12T11:52:44.447Z,35.80
2024-03-12T11:57:50.481Z,29.23
2024-03-12T12:02:53.411Z,39.00
2024-03-12T12:07:55.913Z,37.57
2024-03-12T12:12:58.811Z,39.07
2024-03-12T12:18:11.483Z,35.60
2024-03-12T12:23:14.443Z,33.03
2024-03-12T12:28:18.269Z,38.70
2024-03-12T12:33:21.371Z,27.37
2024-03-12T12:38:24.988Z,39.07
2024-03-12T12:43:27.544Z,39.27
2024-03-12T12:48:30.041Z,40.17
2024-03-12T12:53:32.537Z,38.03
2024-03-12T12:58:35.145Z,39.03
2024-03-12T13:03:42.390Z,38.27
2024-03-12T13:08:47.167Z,28.90
2024-03-12T13:13:53.447Z,34.40
2024-03-12T13:18:59.839Z,36.03
2024-03-12T13:24:04.766Z,36.40
2024-03-12T13:29:07.325Z,36.57
2024-03-12T13:34:09.883Z,37.47
2024-03-12T13:39:16.195Z,36.67
2024-03-12T13:44:18.931Z,31.03
2024-03-12T13:49:24.332Z,36.33
2024-03-12T13:54:28.471Z,21.20
2024-03-12T13:59:32.090Z,23.47
2024-03-12T14:04:37.169Z,25.77
2024-03-12T14:09:40.298Z,33.53
2024-03-12T14:14:42.930Z,29.67
2024-03-12T14:19:45.387Z,38.83
2024-03-12T14:24:47.899Z,31.77
2024-03-12T14:29:50.460Z,37.27
2024-03-12T14:34:53.803Z,38.60
2024-03-12T14:39:56.315Z,34.27
2024-03-12T14:44:58.890Z,34.10
2024-03-12T14:50:01.439Z,35.27
2024-03-12T14:55:04.742Z,46.07
2024-03-12T15:00:17.740Z,37.67
2024-03-12T15:05:21.686Z,43.07
2024-03-12T15:10:24.622Z,33.80
2024-03-12T15:15:27.597Z,34.27
2024-03-12T15:20:31.167Z,28.57
2024-03-12T15:25:34.254Z,28.43
2024-03-12T15:30:38.334Z,38.90
2024-03-12T15:35:41.404Z,39.10
2024-03-12T15:40:43.856Z,33.90
2024-03-12T15:45:46.607Z,32.30
2024-03-12T15:50:49.623Z,31.57
2024-03-12T15:55:52.106Z,38.60
2024-03-12T16:00:54.775Z,36.67
2024-03-12T16:05:57.631Z,35.47
2024-03-12T16:11:03.395Z,31.50
2024-03-12T16:16:07.145Z,37.80
2024-03-12T16:21:09.695Z,47.50
2024-03-12T16:26:12.050Z,37.13
2024-03-12T16:31:15.232Z,34.70
2024-03-12T16:36:19.268Z,35.97
2024-03-12T16:41:21.919Z,34.00
2024-03-12T16:46:24.905Z,37.87
2024-03-12T16:51:27.331Z,38.13
2024-03-12T16:56:33.677Z,37.97
2024-03-12T17:01:37.935Z,36.77
2024-03-12T17:06:46.551Z,39.63
2024-03-12T17:11:49.337Z,38.83
2024-03-12T17:16:56.773Z,38.90
2024-03-12T17:21:59.434Z,28.77
2024-03-12T17:27:05.820Z,37.50
2024-03-12T17:32:11.842Z,38.87
2024-03-12T17:37:17.013Z,37.50
2024-03-12T17:42:21.730Z,40.77
2024-03-12T17:47:25.808Z,38.93
2024-03-12T17:52:30.682Z,43.73
2024-03-12T17:57:34.511Z,46.77
2024-03-12T18:02:40.887Z,55.93
2024-03-12T18:07:48.722Z,38.23
2024-03-12T18:12:51.466Z,40.40
2024-03-12T18:17:54.287Z,49.37
2024-03-12T18:22:57.476Z,46.97
2024-03-12T18:28:00.079Z,41.00
2024-03-12T18:33:02.643Z,42.33
2024-03-12T18:38:06.771Z,42.83
2024-03-12T18:43:09.611Z,47.67
2024-03-12T18:48:12.806Z,51.50
2024-03-12T18:53:15.582Z,50.70
2024-03-12T18:58:18.821Z,43.47
2024-03-12T19:03:22.066Z,45.33
2024-03-12T19:08:26.925Z,46.73
2024-03-12T19:13:31.096Z,56.23
2024-03-12T19:18:34.794Z,52.03
2024-03-12T19:23:37.938Z,48.03
2024-03-12T19:28:44.211Z,41.13
2024-03-12T19:39:18.484Z,60.47
2024-03-12T19:44:21.192Z,50.73
2024-03-12T19:49:25.099Z,48.33
2024-03-12T19:54:28.057Z,50.43
2024-03-12T19:59:30.765Z,48.87
2024-03-12T20:04:33.302Z,35.77
2024-03-12T20:09:38.475Z,54.50
2024-03-12T20:14:41.877Z,48.47
2024-03-12T20:19:44.597Z,53.57
2024-03-12T20:24:47.280Z,56.30
2024-03-12T20:29:50.527Z,46.90
2024-03-12T20:34:53.123Z,59.00
2024-03-12T20:39:56.070Z,50.37
2024-03-12T20:44:58.461Z,42.10
2024-03-12T20:50:01.111Z,60.37
2024-03-12T20:55:05.230Z,59.47
2024-03-12T21:00:17.825Z,54.90
2024-03-12T21:05:20.729Z,40.03
2024-03-12T21:10:23.417Z,54.53
2024-03-12T21:15:26.168Z,56.57
2024-03-12T21:20:30.568Z,59.07
2024-03-12T21:25:34.921Z,48.40
2024-03-12T21:30:41.162Z,56.30
2024-03-12T21:35:43.734Z,54.03
2024-03-12T21:40:46.130Z,57.90
2024-03-12T21:45:48.795Z,53.50
2024-03-12T21:50:55.188Z,59.27
2024-03-12T21:55:57.649Z,58.17
2024-03-12T22:01:00.108Z,56.40
2024-03-12T22:06:02.664Z,66.00
2024-03-12T22:11:11.761Z,54.60
2024-03-12T22:16:19.067Z,51.00
2024-03-12T22:21:26.187Z,62.73
2024-03-12T22:26:30.219Z,55.83
2024-03-12T22:31:33.072Z,57.83
2024-03-12T22:36:35.626Z,57.33
2024-03-12T22:41:44.714Z,58.13
2024-03-12T22:46:47.447Z,55.40
2024-03-12T22:51:57.897Z,53.70
2024-03-12T22:57:00.480Z,56.87
2024-03-12T23:02:04.271Z,58.87
2024-03-12T23:07:08.046Z,42.80
2024-03-12T23:12:11.234Z,55.13
2024-03-12T23:17:15.883Z,49.50
2024-03-12T23:22:18.702Z,40.63
2024-03-12T23:27:21.260Z,38.03
2024-03-12T23:32:23.667Z,51.97
2024-03-12T23:37:27.307Z,44.00
2024-03-12T23:42:29.843Z,35.30
2024-03-12T23:47:32.301Z,32.77
2024-03-12T23:52:35.255Z,55.87
2024-03-12T23:57:38.295Z,53.67
